Impacts TAF Board INFO
FOR SITUATIONAL AWARENESS. NOT TO BE USED FOR FLIGHT PLANNING PURPOSES.
IDs:

KBOS - Boston/Logan Intl, MA, US

Issued at 2328 UTC 19 Feb 2018
Updated at 0352 UTC 20 Feb 2018
Potential Impact None Slight Moderate High
Time<<20/16Z 20/17Z 20/18Z 20/19Z 20/20Z 20/21Z 20/22Z 20/23Z 21/00Z 21/01Z 21/02Z 21/03Z 21/04Z>>
Type PRVL PRVL PRVL PRVL PRVL PRVL PRVL PRVL PRVL PRVL PRVL PRVL PRVL
VIS >6 >6 >6 >6 >6 >6 >6 >6 >6 >6 >6 >6 >6
CIG 60 60 60 60 -- -- -- -- 90 90 90 90 90
Cover BKN BKN BKN BKN SCT SCT SCT SCT BKN BKN BKN BKN BKN
FltCat VFR VFR VFR VFR VFR VFR VFR VFR VFR VFR VFR VFR VFR
WX -- -- -- -- -- -- -- -- -- -- -- -- --
WDir 230 230 230 230 230 230 230 230 230 230 230 230 230
WSpd 19 19 19 19 9 9 9 9 8 8 8 8 8
WGst -- -- -- -- -- -- -- -- -- -- -- -- --

Raw TAF
KBOS 192328Z 2000/2106 19009KT 6SM -SHRA BR OVC045
  FM200300 20010KT 4SM -SHRA BR OVC015 WS020/23040KT
  FM200700 22010KT 5SM BR OVC008
  FM201500 23019KT P6SM BKN060
  FM202000 23009KT P6SM SCT140
  FM210000 23008KT P6SM BKN090


METAR Board
Radar Display
Forecast Discussion

FOR SITUATIONAL AWARENESS. NOT TO BE USED FOR FLIGHT PLANNING PURPOSES.